createdAt,value
2017-08-10T00:00:43.912Z,99.96
2017-08-10T00:01:43.901Z,99.87
2017-08-10T00:02:43.885Z,99.77
2017-08-10T00:03:43.876Z,98.91
2017-08-10T00:04:43.550Z,98.33
2017-08-10T00:05:43.856Z,98.52
2017-08-10T00:06:43.837Z,98.14
2017-08-10T00:07:43.518Z,97.75
2017-08-10T00:08:43.501Z,97.85
2017-08-10T00:09:43.810Z,97.28
2017-08-10T00:10:43.809Z,97.47
2017-08-10T00:11:43.785Z,97.09
2017-08-10T00:12:43.774Z,96.51
2017-08-10T00:13:43.447Z,96.13
2017-08-10T00:14:43.441Z,95.84
2017-08-10T00:15:43.419Z,95.75
2017-08-10T00:16:43.723Z,95.75
2017-08-10T00:17:43.711Z,95.94
2017-08-10T00:18:43.384Z,96.51
2017-08-10T00:19:43.683Z,96.7
2017-08-10T00:20:43.673Z,97.09
2017-08-10T00:21:43.659Z,97.38
2017-08-10T00:22:43.647Z,97.28
2017-08-10T00:23:43.638Z,97.38
2017-08-10T00:24:43.321Z,97.09
2017-08-10T00:25:43.298Z,97.56
2017-08-10T00:26:43.602Z,97.47
2017-08-10T00:27:43.276Z,98.14
2017-08-10T00:28:43.581Z,97.56
2017-08-10T00:29:43.254Z,97.47
2017-08-10T00:30:43.556Z,97.09
2017-08-10T00:31:43.540Z,97.38
2017-08-10T00:32:43.216Z,96.8
2017-08-10T00:33:43.516Z,97.38
2017-08-10T00:34:43.503Z,97.75
2017-08-10T00:35:43.494Z,96.99
2017-08-10T00:36:43.166Z,97.38
2017-08-10T00:37:43.468Z,96.8
2017-08-10T00:38:43.148Z,95.94
2017-08-10T00:39:43.445Z,96.22
2017-08-10T00:40:43.432Z,96.42
2017-08-10T00:41:43.423Z,96.61
2017-08-10T00:42:43.098Z,96.51
2017-08-10T00:43:43.597Z,96.42
2017-08-10T00:44:43.385Z,96.13
2017-08-10T00:45:43.376Z,96.22
2017-08-10T00:46:43.059Z,96.03
2017-08-10T00:47:43.351Z,95.56
2017-08-10T00:48:43.022Z,95.65
2017-08-10T00:49:43.019Z,95.36
2017-08-10T00:50:43.004Z,95.94
2017-08-10T00:51:43.299Z,95.75
2017-08-10T00:52:43.292Z,95.46
2017-08-10T00:53:43.279Z,95.36
2017-08-10T00:54:43.264Z,95.56
2017-08-10T00:55:42.946Z,96.03
2017-08-10T00:56:43.243Z,96.42
2017-08-10T00:57:43.232Z,96.99
2017-08-10T00:58:42.905Z,97.85
2017-08-10T00:59:42.893Z,98.24
2017-08-10T01:00:42.882Z,97.95
2017-08-10T01:01:43.184Z,98.24
2017-08-10T01:02:43.171Z,98.62
2017-08-10T01:03:43.158Z,99.1
2017-08-10T01:04:43.150Z,99.67
2017-08-10T01:05:43.140Z,99.99
2017-08-10T01:06:42.809Z,99.99
2017-08-10T01:07:43.113Z,99.99
2017-08-10T01:08:43.098Z,99.99
2017-08-10T01:09:43.090Z,99.99
2017-08-10T01:10:43.071Z,99.99
2017-08-10T01:11:43.066Z,99.99
2017-08-10T01:12:43.052Z,99.99
2017-08-10T01:13:43.038Z,99.99
2017-08-10T01:14:43.028Z,99.99
2017-08-10T01:15:42.704Z,99.99
2017-08-10T01:16:42.696Z,99.99
2017-08-10T01:17:42.691Z,99.99
2017-08-10T01:18:42.671Z,99.99
2017-08-10T01:19:42.970Z,99.99
2017-08-10T01:20:42.643Z,99.99
2017-08-10T01:21:42.947Z,99.99
2017-08-10T01:22:42.677Z,99.99
2017-08-10T01:23:42.921Z,99.99
2017-08-10T01:24:42.599Z,99.99
2017-08-10T01:25:42.913Z,99.99
2017-08-10T01:26:42.885Z,99.99
2017-08-10T01:27:42.879Z,99.99
2017-08-10T01:28:42.549Z,99.99
2017-08-10T01:29:42.848Z,99.99
2017-08-10T01:30:42.523Z,99.99
2017-08-10T01:31:42.827Z,99.99
2017-08-10T01:32:42.501Z,99.99
2017-08-10T01:33:42.802Z,99.99
2017-08-10T01:34:42.474Z,99.99
2017-08-10T01:35:42.982Z,99.99
2017-08-10T01:36:42.452Z,99.99
2017-08-10T01:37:42.469Z,99.99
2017-08-10T01:38:42.740Z,99.99
2017-08-10T01:39:42.730Z,99.77
2017-08-10T01:40:42.717Z,99.62
2017-08-10T01:41:42.719Z,99.62
2017-08-10T01:42:42.380Z,99.43
2017-08-10T01:43:42.684Z,98.95
2017-08-10T01:44:42.677Z,98.95
2017-08-10T01:45:42.655Z,98.57
2017-08-10T01:46:42.332Z,99.05
2017-08-10T01:47:42.634Z,99.38
2017-08-10T01:48:42.636Z,99.99
2017-08-10T01:49:42.310Z,99.91
2017-08-10T01:50:42.600Z,99.99
2017-08-10T01:51:42.587Z,99.72
2017-08-10T01:52:42.575Z,99.72
2017-08-10T01:53:42.248Z,99.99
2017-08-10T01:54:42.572Z,99.99
2017-08-10T01:55:42.536Z,99.99
2017-08-10T01:56:42.215Z,99.99
2017-08-10T01:57:42.232Z,99.99
2017-08-10T01:58:42.501Z,99.99
2017-08-10T01:59:42.492Z,99.99
2017-08-10T02:00:42.176Z,99.72
2017-08-10T02:01:42.464Z,99.15
2017-08-10T02:02:42.455Z,99.15
2017-08-10T02:03:42.131Z,98.76
2017-08-10T02:04:42.431Z,97.9
2017-08-10T02:05:42.416Z,97.42
2017-08-10T02:06:42.405Z,97.13
2017-08-10T02:07:42.398Z,97.23
2017-08-10T02:08:42.395Z,97.42
2017-08-10T02:09:42.060Z,97.13
2017-08-10T02:10:42.362Z,96.75
2017-08-10T02:11:42.343Z,96.84
2017-08-10T02:12:42.332Z,96.27
2017-08-10T02:13:42.008Z,96.08
2017-08-10T02:14:41.993Z,95.7
2017-08-10T02:15:42.297Z,95.79
2017-08-10T02:16:42.284Z,95.79
2017-08-10T02:17:42.270Z,96.27
2017-08-10T02:18:42.259Z,96.56
2017-08-10T02:19:41.939Z,96.27
2017-08-10T02:20:42.237Z,96.94
2017-08-10T02:21:41.910Z,96.47
2017-08-10T02:22:41.900Z,96.75
2017-08-10T02:23:42.196Z,96.94
2017-08-10T02:24:42.188Z,96.84
2017-08-10T02:25:42.178Z,97.52
2017-08-10T02:26:41.851Z,96.75
2017-08-10T02:27:41.863Z,97.61
2017-08-10T02:28:41.826Z,96.84
2017-08-10T02:29:41.821Z,97.33
2017-08-10T02:30:41.805Z,97.71
2017-08-10T02:31:42.103Z,98.33
2017-08-10T02:32:41.781Z,98.38
2017-08-10T02:33:41.767Z,98.86
2017-08-10T02:34:42.072Z,99.15
2017-08-10T02:35:41.742Z,99
2017-08-10T02:36:41.730Z,99.62
2017-08-10T02:37:41.719Z,99.99
2017-08-10T02:38:41.705Z,99.99
2017-08-10T02:39:41.696Z,99.99
2017-08-10T02:40:41.681Z,99.99
2017-08-10T02:41:41.978Z,99.87
2017-08-10T02:42:41.967Z,99.99
2017-08-10T02:43:41.648Z,99.99
2017-08-10T02:44:41.942Z,99.99
2017-08-10T02:45:41.948Z,99.99
2017-08-10T02:46:41.920Z,99.99
2017-08-10T02:47:41.592Z,99.99
2017-08-10T02:48:41.896Z,99.67
2017-08-10T02:49:41.571Z,99.99
2017-08-10T02:50:41.871Z,99.99
2017-08-10T02:51:41.855Z,99.99
2017-08-10T02:52:41.533Z,99.99
2017-08-10T02:53:41.832Z,99.99
2017-08-10T02:54:41.826Z,99.99
2017-08-10T02:55:41.811Z,99.99
2017-08-10T02:56:41.798Z,99.99
2017-08-10T02:57:41.794Z,99.99
2017-08-10T02:58:41.827Z,99.99
2017-08-10T02:59:41.449Z,99.29
2017-08-10T03:00:41.439Z,99.67
2017-08-10T03:01:41.423Z,99.58
2017-08-10T03:02:41.423Z,99.99
2017-08-10T03:03:41.715Z,99.99
2017-08-10T03:04:41.390Z,99.67
2017-08-10T03:05:41.695Z,99.99
2017-08-10T03:06:41.691Z,99.99
2017-08-10T03:07:41.663Z,99.99
2017-08-10T03:08:41.679Z,99.19
2017-08-10T03:09:41.638Z,99
2017-08-10T03:10:41.631Z,99.77
2017-08-10T03:11:41.616Z,99.99
2017-08-10T03:12:41.605Z,99.99
2017-08-10T03:13:41.592Z,99.99
2017-08-10T03:14:41.580Z,99.99
2017-08-10T03:15:41.259Z,99.77
2017-08-10T03:16:41.557Z,99.58
2017-08-10T03:17:41.545Z,99.77
2017-08-10T03:18:41.220Z,99.58
2017-08-10T03:19:41.207Z,98.71
2017-08-10T03:20:41.195Z,98.71
2017-08-10T03:21:41.496Z,99
2017-08-10T03:22:41.481Z,99
2017-08-10T03:23:41.214Z,99.19
2017-08-10T03:24:41.458Z,98.91
2017-08-10T03:25:41.447Z,99.99
2017-08-10T03:26:41.436Z,99.99
2017-08-10T03:27:41.423Z,99.99
2017-08-10T03:28:41.414Z,99.99
2017-08-10T03:29:41.089Z,99.99
2017-08-10T03:30:41.396Z,99.99
2017-08-10T03:31:41.065Z,99.99
2017-08-10T03:32:41.367Z,99.99
2017-08-10T03:33:41.353Z,99.99
2017-08-10T03:34:41.368Z,99.99
2017-08-10T03:35:41.530Z,99.99
2017-08-10T03:36:41.318Z,99.96
2017-08-10T03:37:41.313Z,99.87
2017-08-10T03:38:41.292Z,99.96
2017-08-10T03:39:40.966Z,99.67
2017-08-10T03:40:41.275Z,98.62
2017-08-10T03:41:41.256Z,96.99
2017-08-10T03:42:41.250Z,97.38
2017-08-10T03:43:40.920Z,97.85
2017-08-10T03:44:41.219Z,97.47
2017-08-10T03:45:40.936Z,97.75
2017-08-10T03:46:41.198Z,97.47
2017-08-10T03:47:41.188Z,97.38
2017-08-10T03:48:40.861Z,98.14
2017-08-10T03:49:41.159Z,98.43
2017-08-10T03:50:40.840Z,98.91
2017-08-10T03:51:41.138Z,99.1
2017-08-10T03:52:41.137Z,99.48
2017-08-10T03:53:41.118Z,99.87
2017-08-10T03:54:41.100Z,99.99
2017-08-10T03:55:41.112Z,99.99
2017-08-10T03:56:41.078Z,99.58
2017-08-10T03:57:41.069Z,99.67
2017-08-10T03:58:41.056Z,99.58
2017-08-10T03:59:41.050Z,99.77
2017-08-10T04:00:41.034Z,99.99
2017-08-10T04:01:41.046Z,99.58
2017-08-10T04:02:40.695Z,99.48
2017-08-10T04:03:40.996Z,98.81
2017-08-10T04:04:40.986Z,99
2017-08-10T04:05:40.978Z,98.81
2017-08-10T04:06:40.961Z,99.99
2017-08-10T04:07:40.641Z,99.99
2017-08-10T04:08:40.628Z,99.99
2017-08-10T04:09:40.926Z,99.96
2017-08-10T04:10:40.912Z,99.99
2017-08-10T04:11:40.594Z,99.29
2017-08-10T04:12:40.891Z,99.67
2017-08-10T04:13:40.876Z,99.48
2017-08-10T04:14:40.879Z,98.24
2017-08-10T04:15:40.545Z,97.95
2017-08-10T04:16:40.528Z,98.24
2017-08-10T04:17:40.832Z,97.95
2017-08-10T04:18:40.818Z,97.56
2017-08-10T04:19:40.805Z,97.47
2017-08-10T04:20:40.482Z,96.89
2017-08-10T04:21:40.472Z,96.03
2017-08-10T04:22:40.460Z,95.84
2017-08-10T04:23:40.766Z,95.46
2017-08-10T04:24:40.435Z,95.65
2017-08-10T04:25:40.425Z,96.03
2017-08-10T04:26:40.418Z,96.32
2017-08-10T04:27:40.713Z,96.8
2017-08-10T04:28:40.389Z,96.89
2017-08-10T04:29:40.696Z,97.09
2017-08-10T04:30:40.368Z,97.38
2017-08-10T04:31:40.357Z,96.89
2017-08-10T04:32:40.658Z,96.42
2017-08-10T04:33:40.642Z,95.94
2017-08-10T04:34:40.316Z,95.46
2017-08-10T04:35:40.618Z,95.36
2017-08-10T04:36:40.298Z,95.84
2017-08-10T04:37:40.594Z,95.36
2017-08-10T04:38:40.584Z,95.17
2017-08-10T04:39:40.307Z,94.4
2017-08-10T04:40:40.251Z,93.74
2017-08-10T04:41:40.546Z,93.74
2017-08-10T04:42:40.224Z,94.02
2017-08-10T04:43:40.524Z,94.21
2017-08-10T04:44:40.519Z,95.17
2017-08-10T04:45:40.512Z,95.07
2017-08-10T04:46:40.491Z,94.31
2017-08-10T04:47:40.471Z,94.89
2017-08-10T04:48:40.460Z,94.89
2017-08-10T04:49:40.451Z,95.07
2017-08-10T04:50:40.440Z,95.27
2017-08-10T04:51:40.426Z,95.07
2017-08-10T04:52:40.414Z,94.6
2017-08-10T04:53:40.403Z,94.89
2017-08-10T04:54:40.077Z,93.16
2017-08-10T04:55:40.384Z,94.4
2017-08-10T04:56:40.368Z,93.83
2017-08-10T04:57:40.041Z,93.45
2017-08-10T04:58:40.344Z,93.74
2017-08-10T04:59:40.024Z,94.02
2017-08-10T05:00:40.007Z,93.83
2017-08-10T05:01:39.995Z,93.93
2017-08-10T05:02:40.295Z,93.26
2017-08-10T05:03:39.970Z,92.97
2017-08-10T05:04:40.268Z,91.72
2017-08-10T05:05:40.265Z,92.11
2017-08-10T05:06:40.258Z,92.3
2017-08-10T05:07:39.928Z,93.07
2017-08-10T05:08:39.914Z,92.97
2017-08-10T05:09:40.213Z,93.74
2017-08-10T05:10:40.208Z,94.89
2017-08-10T05:11:40.190Z,94.69
2017-08-10T05:12:39.865Z,94.69
2017-08-10T05:13:39.855Z,94.21
2017-08-10T05:14:40.150Z,93.54
2017-08-10T05:15:40.139Z,93.74
2017-08-10T05:16:40.131Z,94.07
2017-08-10T05:17:40.116Z,93.02
2017-08-10T05:18:40.106Z,93.11
2017-08-10T05:19:40.097Z,92.82
2017-08-10T05:20:39.770Z,92.35
2017-08-10T05:21:40.074Z,92.35
2017-08-10T05:22:39.955Z,92.54
2017-08-10T05:23:40.046Z,93.02
2017-08-10T05:24:39.728Z,93.49
2017-08-10T05:25:40.025Z,93.4
2017-08-10T05:26:40.012Z,93.11
2017-08-10T05:27:40.002Z,93.98
2017-08-10T05:28:39.984Z,94.93
2017-08-10T05:29:39.978Z,94.74
2017-08-10T05:30:39.966Z,94.35
2017-08-10T05:31:39.951Z,93.78
2017-08-10T05:32:39.950Z,93.4
2017-08-10T05:33:39.619Z,93.78
2017-08-10T05:34:39.927Z,93.59
2017-08-10T05:35:40.109Z,93.88
2017-08-10T05:36:39.949Z,93.69
2017-08-10T05:37:39.883Z,93.21
2017-08-10T05:38:39.870Z,93.88
2017-08-10T05:39:39.863Z,93.98
2017-08-10T05:40:39.848Z,93.78
2017-08-10T05:41:39.535Z,94.93
2017-08-10T05:42:39.830Z,94.93
2017-08-10T05:43:39.815Z,95.51
2017-08-10T05:44:39.804Z,95.98
2017-08-10T05:45:39.789Z,96.47
2017-08-10T05:46:39.780Z,97.33
2017-08-10T05:47:39.766Z,96.18
2017-08-10T05:48:39.755Z,95.51
2017-08-10T05:49:39.746Z,95.7
2017-08-10T05:50:39.734Z,94.84
2017-08-10T05:51:39.412Z,95.03
2017-08-10T05:52:39.711Z,94.74
2017-08-10T05:53:39.389Z,94.93
2017-08-10T05:54:39.691Z,94.89
2017-08-10T05:55:39.675Z,95.94
2017-08-10T05:56:39.665Z,97.76
2017-08-10T05:57:39.345Z,97.95
2017-08-10T05:58:39.643Z,98.24
2017-08-10T05:59:39.318Z,98.33
2017-08-10T06:00:39.622Z,96.42
2017-08-10T06:01:39.610Z,96.03
2017-08-10T06:02:39.285Z,97.47
2017-08-10T06:03:39.588Z,97.38
2017-08-10T06:04:39.264Z,97.38
2017-08-10T06:05:39.564Z,98.43
2017-08-10T06:06:39.243Z,98.33
2017-08-10T06:07:39.544Z,98.38
2017-08-10T06:08:39.529Z,99.73
2017-08-10T06:09:39.520Z,99.44
2017-08-10T06:10:39.509Z,99.99
2017-08-10T06:11:39.513Z,99.34
2017-08-10T06:12:39.490Z,99.99
2017-08-10T06:13:39.478Z,99.99
2017-08-10T06:14:39.157Z,99.99
2017-08-10T06:15:39.460Z,99.99
2017-08-10T06:16:39.137Z,99.82
2017-08-10T06:17:39.125Z,99.99
2017-08-10T06:18:39.438Z,99.91
2017-08-10T06:19:39.414Z,99.99
2017-08-10T06:20:39.407Z,99.99
2017-08-10T06:21:39.401Z,99.99
2017-08-10T06:22:39.383Z,99.99
2017-08-10T06:23:39.375Z,99.99
2017-08-10T06:24:39.055Z,99.99
2017-08-10T06:25:39.097Z,99.99
2017-08-10T06:26:39.033Z,99.99
2017-08-10T06:27:39.020Z,99.99
2017-08-10T06:28:39.011Z,99.99
2017-08-10T06:29:39.312Z,99.99
2017-08-10T06:30:39.300Z,99.99
2017-08-10T06:31:39.294Z,99.99
2017-08-10T06:32:38.968Z,99.99
2017-08-10T06:33:39.273Z,99.99
2017-08-10T06:34:39.262Z,99.99
2017-08-10T06:35:39.300Z,99.99
2017-08-10T06:36:39.244Z,99.99
2017-08-10T06:37:39.233Z,99.99
2017-08-10T06:38:39.224Z,99.99
2017-08-10T06:39:39.209Z,99.99
2017-08-10T06:40:39.204Z,99.99
2017-08-10T06:41:39.189Z,99.99
2017-08-10T06:42:39.182Z,99.99
2017-08-10T06:43:39.172Z,99.99
2017-08-10T06:44:39.163Z,99.99
2017-08-10T06:45:39.166Z,99.99
2017-08-10T06:46:39.141Z,99.99
2017-08-10T06:47:39.129Z,99.99
2017-08-10T06:48:39.119Z,99.99
2017-08-10T06:49:38.797Z,99.99
2017-08-10T06:50:38.791Z,99.99
2017-08-10T06:51:39.089Z,99.99
2017-08-10T06:52:39.083Z,99.99
2017-08-10T06:53:39.094Z,99.99
2017-08-10T06:54:39.065Z,99.99
2017-08-10T06:55:39.054Z,99.99
2017-08-10T06:56:39.046Z,99.99
2017-08-10T06:57:39.030Z,99.99
2017-08-10T06:58:39.023Z,99.99
2017-08-10T06:59:38.699Z,99.99
2017-08-10T07:00:38.689Z,99.99
2017-08-10T07:01:38.678Z,99.99
2017-08-10T07:02:38.673Z,99.99
2017-08-10T07:03:38.969Z,99.99
2017-08-10T07:04:38.676Z,99.99
2017-08-10T07:05:38.948Z,99.99
2017-08-10T07:06:38.940Z,99.99
2017-08-10T07:07:38.932Z,99.99
2017-08-10T07:08:38.925Z,99.99
2017-08-10T07:09:38.598Z,99.99
2017-08-10T07:10:38.901Z,99.99
2017-08-10T07:11:38.576Z,99.99
2017-08-10T07:12:38.879Z,99.99
2017-08-10T07:13:38.875Z,99.99
2017-08-10T07:14:38.547Z,99.99
2017-08-10T07:15:38.538Z,99.99
2017-08-10T07:16:38.839Z,99.99
2017-08-10T07:17:38.833Z,99.99
2017-08-10T07:18:38.506Z,99.99
2017-08-10T07:19:38.808Z,99.99
2017-08-10T07:20:38.805Z,99.99
2017-08-10T07:21:38.476Z,99.99
2017-08-10T07:22:38.481Z,99.99
2017-08-10T07:23:38.770Z,99.99
2017-08-10T07:24:38.760Z,99.99
2017-08-10T07:25:38.747Z,99.99
2017-08-10T07:26:38.741Z,99.99
2017-08-10T07:27:38.419Z,99.99
2017-08-10T07:28:38.720Z,99.99
2017-08-10T07:29:38.715Z,99.99
2017-08-10T07:30:38.713Z,99.99
2017-08-10T07:31:38.690Z,99.99
2017-08-10T07:32:38.680Z,99.99
2017-08-10T07:33:38.364Z,99.99
2017-08-10T07:34:38.346Z,99.99
2017-08-10T07:35:38.547Z,99.99
2017-08-10T07:36:38.655Z,99.99
2017-08-10T07:37:38.633Z,99.99
2017-08-10T07:38:38.623Z,99.99
2017-08-10T07:39:38.629Z,99.99
2017-08-10T07:40:38.616Z,99.99
2017-08-10T07:41:38.595Z,99.99
2017-08-10T07:42:38.595Z,99.99
2017-08-10T07:43:38.575Z,99.99
2017-08-10T07:44:38.251Z,99.99
2017-08-10T07:45:38.558Z,99.99
2017-08-10T07:46:38.553Z,99.99
2017-08-10T07:47:38.223Z,99.99
2017-08-10T07:48:38.527Z,99.99
2017-08-10T07:49:38.522Z,99.99
2017-08-10T07:50:38.511Z,99.99
2017-08-10T07:51:38.499Z,99.99
2017-08-10T07:52:38.487Z,99.99
2017-08-10T07:53:38.483Z,99.99
2017-08-10T07:54:38.476Z,99.99
2017-08-10T07:55:38.463Z,99.99
2017-08-10T07:56:38.141Z,99.99
2017-08-10T07:57:38.133Z,99.99
2017-08-10T07:58:38.434Z,99.99
2017-08-10T07:59:38.111Z,99.99
2017-08-10T08:00:38.107Z,99.99
2017-08-10T08:01:38.143Z,99.99
2017-08-10T08:02:38.086Z,99.99
2017-08-10T08:03:38.391Z,99.99
2017-08-10T08:04:38.384Z,99.99
2017-08-10T08:05:38.054Z,99.99
2017-08-10T08:06:38.361Z,99.99
2017-08-10T08:07:38.353Z,99.99
2017-08-10T08:08:38.343Z,99.99
2017-08-10T08:09:38.019Z,99.99
2017-08-10T08:10:38.326Z,99.99
2017-08-10T08:11:38.366Z,99.99
2017-08-10T08:12:38.308Z,99.99
2017-08-10T08:13:38.296Z,99.99
2017-08-10T08:14:38.290Z,99.99
2017-08-10T08:15:37.969Z,99.99
2017-08-10T08:16:38.274Z,99.99
2017-08-10T08:17:38.264Z,99.99
2017-08-10T08:18:38.258Z,99.99
2017-08-10T08:19:38.247Z,99.99
2017-08-10T08:20:38.237Z,99.99
2017-08-10T08:21:37.919Z,99.99
2017-08-10T08:22:37.911Z,99.99
2017-08-10T08:23:38.219Z,99.99
2017-08-10T08:24:38.208Z,99.99
2017-08-10T08:25:37.891Z,99.99
2017-08-10T08:26:38.189Z,99.99
2017-08-10T08:27:38.182Z,99.99
2017-08-10T08:28:38.175Z,99.99
2017-08-10T08:29:38.166Z,99.99
2017-08-10T08:30:38.158Z,99.99
2017-08-10T08:31:38.151Z,99.99
2017-08-10T08:32:38.139Z,99.99
2017-08-10T08:33:37.822Z,99.99
2017-08-10T08:34:38.128Z,99.99
2017-08-10T08:35:38.115Z,99.99
2017-08-10T08:36:37.794Z,99.99
2017-08-10T08:37:38.105Z,99.99
2017-08-10T08:38:38.093Z,99.99
2017-08-10T08:39:38.084Z,99.99
2017-08-10T08:40:38.076Z,99.99
2017-08-10T08:41:37.759Z,99.99
2017-08-10T08:42:38.067Z,99.99
2017-08-10T08:43:38.056Z,99.99
2017-08-10T08:44:38.049Z,99.99
2017-08-10T08:45:38.035Z,99.99
2017-08-10T08:46:38.028Z,99.99
2017-08-10T08:47:38.019Z,99.99
2017-08-10T08:48:38.018Z,99.99
2017-08-10T08:49:38.003Z,99.99
2017-08-10T08:50:37.684Z,99.99
2017-08-10T08:51:37.991Z,99.99
2017-08-10T08:52:37.980Z,99.99
2017-08-10T08:53:37.977Z,99.99
2017-08-10T08:54:37.968Z,99.99
2017-08-10T08:55:37.644Z,99.99
2017-08-10T08:56:37.948Z,99.99
2017-08-10T08:57:37.945Z,99.99
2017-08-10T08:58:37.620Z,99.99
2017-08-10T08:59:37.933Z,99.99
2017-08-10T09:00:37.932Z,99.99
2017-08-10T09:01:37.599Z,99.99
2017-08-10T09:02:37.897Z,99.99
2017-08-10T09:03:37.890Z,99.99
2017-08-10T09:04:37.573Z,99.99
2017-08-10T09:05:37.875Z,99.99
2017-08-10T09:06:37.869Z,99.99
2017-08-10T09:07:37.860Z,99.99
2017-08-10T09:08:37.543Z,99.99
2017-08-10T09:09:37.586Z,99.99
2017-08-10T09:10:37.577Z,99.99
2017-08-10T09:11:37.840Z,99.99
2017-08-10T09:12:37.822Z,99.99
2017-08-10T09:13:37.504Z,99.99
2017-08-10T09:14:37.500Z,99.99
2017-08-10T09:15:37.801Z,99.99
2017-08-10T09:16:37.793Z,99.99
2017-08-10T09:17:37.472Z,99.99
2017-08-10T09:18:37.775Z,99.99
2017-08-10T09:19:37.771Z,99.99
2017-08-10T09:20:37.450Z,99.99
2017-08-10T09:21:37.758Z,99.99
2017-08-10T09:22:37.439Z,99.99
2017-08-10T09:23:37.425Z,99.99
2017-08-10T09:24:37.417Z,99.99
2017-08-10T09:25:37.721Z,99.99
2017-08-10T09:26:37.710Z,99.99
2017-08-10T09:27:37.395Z,99.99
2017-08-10T09:28:37.697Z,99.99
2017-08-10T09:29:37.693Z,99.99
2017-08-10T09:30:37.372Z,99.99
2017-08-10T09:31:37.363Z,99.99
2017-08-10T09:32:37.676Z,99.99
2017-08-10T09:33:37.658Z,99.99
2017-08-10T09:34:37.336Z,99.99
2017-08-10T09:35:37.640Z,99.99
2017-08-10T09:36:37.631Z,99.99
2017-08-10T09:37:37.706Z,99.99
2017-08-10T09:38:37.620Z,99.99
2017-08-10T09:39:37.612Z,99.99
2017-08-10T09:40:37.298Z,99.99
2017-08-10T09:41:37.593Z,99.99
2017-08-10T09:42:37.584Z,99.99
2017-08-10T09:43:37.274Z,99.99
2017-08-10T09:44:37.569Z,99.99
2017-08-10T09:45:37.254Z,99.99
2017-08-10T09:46:37.242Z,99.99
2017-08-10T09:47:37.233Z,99.99
2017-08-10T09:48:37.538Z,99.99
2017-08-10T09:49:37.526Z,99.99
2017-08-10T09:50:37.529Z,99.99
2017-08-10T09:51:37.201Z,99.99
2017-08-10T09:52:37.195Z,99.99
2017-08-10T09:53:37.551Z,99.99
2017-08-10T09:54:37.186Z,99.99
2017-08-10T09:55:37.180Z,99.99
2017-08-10T09:56:37.486Z,99.99
2017-08-10T09:57:37.473Z,99.99
2017-08-10T09:58:37.468Z,99.99
2017-08-10T09:59:37.461Z,99.99
2017-08-10T10:00:37.153Z,99.99
2017-08-10T10:01:37.449Z,99.99
2017-08-10T10:02:37.443Z,99.99
2017-08-10T10:03:37.127Z,99.99
2017-08-10T10:04:37.118Z,99.99
2017-08-10T10:05:37.429Z,99.99
2017-08-10T10:06:37.159Z,99.99
2017-08-10T10:07:37.409Z,99.99
2017-08-10T10:08:37.091Z,99.99
2017-08-10T10:09:37.398Z,99.99
2017-08-10T10:10:37.281Z,99.99
2017-08-10T10:11:37.407Z,99.99
2017-08-10T10:12:37.406Z,99.99
2017-08-10T10:13:37.372Z,99.99
2017-08-10T10:14:37.364Z,99.99
2017-08-10T10:15:37.359Z,99.99
2017-08-10T10:16:37.353Z,99.99
2017-08-10T10:17:37.348Z,99.99
2017-08-10T10:18:37.392Z,99.99
2017-08-10T10:19:37.334Z,99.99
2017-08-10T10:20:37.011Z,99.99
2017-08-10T10:21:37.330Z,99.99
2017-08-10T10:22:37.013Z,99.99
2017-08-10T10:23:37.310Z,99.99
2017-08-10T10:24:37.298Z,99.99
2017-08-10T10:25:37.295Z,99.99
2017-08-10T10:26:36.980Z,99.99
2017-08-10T10:27:37.337Z,99.99
2017-08-10T10:28:36.967Z,99.99
2017-08-10T10:29:36.973Z,99.99
2017-08-10T10:30:37.279Z,99.99
2017-08-10T10:31:36.951Z,99.99
2017-08-10T10:32:37.332Z,99.99
2017-08-10T10:33:37.260Z,99.99
2017-08-10T10:34:36.940Z,99.99
2017-08-10T10:35:36.931Z,99.99
2017-08-10T10:36:36.922Z,99.99
2017-08-10T10:37:36.917Z,99.99
2017-08-10T10:38:36.913Z,99.99
2017-08-10T10:39:37.219Z,99.99
2017-08-10T10:40:36.905Z,99.99
2017-08-10T10:41:36.897Z,99.99
2017-08-10T10:42:37.205Z,99.99
2017-08-10T10:43:36.884Z,99.99
2017-08-10T10:44:37.203Z,99.99
2017-08-10T10:45:36.882Z,99.99
2017-08-10T10:46:37.187Z,99.99
2017-08-10T10:47:37.187Z,99.99
2017-08-10T10:48:37.180Z,99.99
2017-08-10T10:49:37.170Z,99.99
2017-08-10T10:50:37.169Z,99.99
2017-08-10T10:51:37.165Z,99.99
2017-08-10T10:52:37.154Z,99.99
2017-08-10T10:53:36.861Z,99.99
2017-08-10T10:54:36.833Z,99.99
2017-08-10T10:55:37.135Z,99.99
2017-08-10T10:56:37.136Z,99.99
2017-08-10T10:57:37.141Z,99.99
2017-08-10T10:58:36.809Z,99.99
2017-08-10T10:59:37.116Z,99.99
2017-08-10T11:00:37.117Z,99.99
2017-08-10T11:01:36.789Z,99.99
2017-08-10T11:02:37.094Z,99.99
2017-08-10T11:03:37.321Z,99.99
2017-08-10T11:04:37.103Z,99.99
2017-08-10T11:05:36.765Z,99.99
2017-08-10T11:06:37.077Z,99.99
2017-08-10T11:07:36.749Z,99.99
2017-08-10T11:08:37.057Z,99.99
2017-08-10T11:09:36.744Z,99.99
2017-08-10T11:10:36.749Z,99.99
2017-08-10T11:11:36.726Z,99.99
2017-08-10T11:12:36.725Z,99.99
2017-08-10T11:13:37.022Z,99.99
2017-08-10T11:14:36.704Z,99.99
2017-08-10T11:15:36.698Z,99.99
2017-08-10T11:16:36.691Z,99.99
2017-08-10T11:17:36.996Z,99.99
2017-08-10T11:18:36.677Z,99.99
2017-08-10T11:19:36.985Z,99.99
2017-08-10T11:20:36.666Z,99.99
2017-08-10T11:21:36.657Z,99.99
2017-08-10T11:22:36.648Z,99.99
2017-08-10T11:23:37.234Z,99.99
2017-08-10T11:24:36.641Z,99.99
2017-08-10T11:25:36.943Z,99.99
2017-08-10T11:26:36.961Z,99.99
2017-08-10T11:27:36.615Z,99.99
2017-08-10T11:28:36.922Z,99.99
2017-08-10T11:29:36.609Z,99.99
2017-08-10T11:30:37.363Z,99.99
2017-08-10T11:31:36.902Z,99.99
2017-08-10T11:32:36.895Z,99.99
2017-08-10T11:33:36.885Z,99.99
2017-08-10T11:34:36.569Z,99.99
2017-08-10T11:35:36.562Z,99.99
2017-08-10T11:36:37.158Z,99.99
2017-08-10T11:37:36.749Z,99.99
2017-08-10T11:38:36.538Z,99.99
2017-08-10T11:39:36.847Z,99.99
2017-08-10T11:40:36.839Z,99.99
2017-08-10T11:41:36.905Z,99.99
2017-08-10T11:42:36.824Z,99.99
2017-08-10T11:43:36.819Z,99.99
2017-08-10T11:44:36.809Z,99.99
2017-08-10T11:45:36.803Z,99.99
2017-08-10T11:46:36.485Z,99.99
2017-08-10T11:47:36.485Z,99.99
2017-08-10T11:48:36.778Z,99.99
2017-08-10T11:49:36.459Z,99.99
2017-08-10T11:50:36.796Z,99.99
2017-08-10T11:51:36.455Z,99.99
2017-08-10T11:52:36.748Z,99.99
2017-08-10T11:53:36.431Z,99.99
2017-08-10T11:54:36.738Z,99.99
2017-08-10T11:55:36.418Z,99.99
2017-08-10T11:56:36.723Z,99.99
2017-08-10T11:57:36.712Z,99.99
2017-08-10T11:58:36.704Z,99.99
2017-08-10T11:59:36.721Z,99.99
2017-08-10T12:00:36.692Z,99.99
2017-08-10T12:01:36.386Z,99.99
2017-08-10T12:02:36.681Z,99.99
2017-08-10T12:03:36.790Z,99.99
2017-08-10T12:04:36.347Z,99.99
2017-08-10T12:05:36.656Z,99.99
2017-08-10T12:06:36.649Z,99.99
2017-08-10T12:07:36.405Z,99.99
2017-08-10T12:08:36.318Z,99.99
2017-08-10T12:09:36.624Z,99.99
2017-08-10T12:10:36.629Z,99.99
2017-08-10T12:11:36.296Z,99.99
2017-08-10T12:12:36.611Z,99.99
2017-08-10T12:13:36.591Z,99.99
2017-08-10T12:14:36.639Z,99.99
2017-08-10T12:15:36.269Z,99.99
2017-08-10T12:16:36.569Z,99.99
2017-08-10T12:17:36.565Z,99.99
2017-08-10T12:18:36.239Z,99.99
2017-08-10T12:19:36.247Z,99.99
2017-08-10T12:20:36.542Z,99.99
2017-08-10T12:21:36.215Z,99.99
2017-08-10T12:22:36.525Z,99.99
2017-08-10T12:23:36.514Z,99.99
2017-08-10T12:24:36.193Z,99.99
2017-08-10T12:25:36.499Z,99.99
2017-08-10T12:26:36.490Z,99.99
2017-08-10T12:27:36.167Z,99.99
2017-08-10T12:28:36.157Z,99.99
2017-08-10T12:29:36.463Z,99.99
2017-08-10T12:30:36.456Z,99.99
2017-08-10T12:31:36.449Z,99.99
2017-08-10T12:32:36.453Z,99.99
2017-08-10T12:33:36.116Z,99.99
2017-08-10T12:34:36.107Z,99.99
2017-08-10T12:35:36.420Z,99.99
2017-08-10T12:36:36.407Z,99.99
2017-08-10T12:37:36.398Z,99.99
2017-08-10T12:38:36.395Z,99.99
2017-08-10T12:39:36.072Z,99.99
2017-08-10T12:40:36.373Z,99.99
2017-08-10T12:41:36.366Z,99.99
2017-08-10T12:42:36.359Z,99.99
2017-08-10T12:43:36.038Z,99.99
2017-08-10T12:44:36.340Z,99.99
2017-08-10T12:45:36.334Z,99.99
2017-08-10T12:46:36.324Z,99.99
2017-08-10T12:47:36.002Z,99.99
2017-08-10T12:48:36.307Z,99.99
2017-08-10T12:49:35.994Z,99.99
2017-08-10T12:50:35.978Z,99.99
2017-08-10T12:51:36.281Z,99.99
2017-08-10T12:52:36.272Z,99.99
2017-08-10T12:53:36.266Z,99.99